sensor_id;sensor_type;location;lat;lon;timestamp;P1;durP1;ratioP1;P2;durP2;ratioP2
13443;SDS011;6794;59.218;18.218;2024-02-23T00:00:31;34.17;;;15.63;;
13443;SDS011;6794;59.218;18.218;2024-02-23T00:02:57;42.07;;;21.93;;
13443;SDS011;6794;59.218;18.218;2024-02-23T00:05:24;34.23;;;13.77;;
13443;SDS011;6794;59.218;18.218;2024-02-23T00:07:50;37.57;;;16.60;;
13443;SDS011;6794;59.218;18.218;2024-02-23T00:10:16;34.33;;;15.70;;
13443;SDS011;6794;59.218;18.218;2024-02-23T00:12:42;39.30;;;17.43;;
13443;SDS011;6794;59.218;18.218;2024-02-23T00:15:12;30.00;;;14.13;;
13443;SDS011;6794;59.218;18.218;2024-02-23T00:17:38;34.83;;;15.97;;
13443;SDS011;6794;59.218;18.218;2024-02-23T00:20:05;48.60;;;22.77;;
13443;SDS011;6794;59.218;18.218;2024-02-23T00:22:32;36.97;;;15.07;;
13443;SDS011;6794;59.218;18.218;2024-02-23T00:24:59;44.17;;;19.87;;
13443;SDS011;6794;59.218;18.218;2024-02-23T00:27:25;38.73;;;16.87;;
13443;SDS011;6794;59.218;18.218;2024-02-23T00:29:51;39.07;;;15.13;;
13443;SDS011;6794;59.218;18.218;2024-02-23T00:32:17;32.77;;;14.67;;
13443;SDS011;6794;59.218;18.218;2024-02-23T00:34:43;42.38;;;19.27;;
13443;SDS011;6794;59.218;18.218;2024-02-23T00:37:09;33.67;;;15.60;;
13443;SDS011;6794;59.218;18.218;2024-02-23T00:39:35;48.37;;;21.37;;
13443;SDS011;6794;59.218;18.218;2024-02-23T00:42:02;45.20;;;19.50;;
13443;SDS011;6794;59.218;18.218;2024-02-23T00:44:28;39.33;;;15.60;;
13443;SDS011;6794;59.218;18.218;2024-02-23T00:46:55;42.47;;;15.77;;
13443;SDS011;6794;59.218;18.218;2024-02-23T00:49:23;46.73;;;20.53;;
13443;SDS011;6794;59.218;18.218;2024-02-23T00:51:49;38.50;;;17.30;;
13443;SDS011;6794;59.218;18.218;2024-02-23T00:54:15;38.30;;;16.60;;
13443;SDS011;6794;59.218;18.218;2024-02-23T00:56:41;47.20;;;20.80;;
13443;SDS011;6794;59.218;18.218;2024-02-23T00:59:07;40.63;;;17.07;;
13443;SDS011;6794;59.218;18.218;2024-02-23T01:01:33;36.53;;;16.30;;
13443;SDS011;6794;59.218;18.218;2024-02-23T01:03:59;41.67;;;18.63;;
13443;SDS011;6794;59.218;18.218;2024-02-23T01:06:25;42.87;;;19.80;;
13443;SDS011;6794;59.218;18.218;2024-02-23T01:08:53;45.63;;;18.73;;
13443;SDS011;6794;59.218;18.218;2024-02-23T01:11:19;50.28;;;23.85;;
13443;SDS011;6794;59.218;18.218;2024-02-23T01:13:45;48.47;;;22.50;;
13443;SDS011;6794;59.218;18.218;2024-02-23T01:16:11;39.43;;;16.73;;
13443;SDS011;6794;59.218;18.218;2024-02-23T01:18:37;41.27;;;19.43;;
13443;SDS011;6794;59.218;18.218;2024-02-23T01:21:03;44.05;;;22.77;;
13443;SDS011;6794;59.218;18.218;2024-02-23T01:23:29;25.40;;;11.37;;
13443;SDS011;6794;59.218;18.218;2024-02-23T01:25:55;37.47;;;20.30;;
13443;SDS011;6794;59.218;18.218;2024-02-23T01:28:23;38.77;;;17.13;;
13443;SDS011;6794;59.218;18.218;2024-02-23T01:30:49;43.92;;;22.98;;
13443;SDS011;6794;59.218;18.218;2024-02-23T01:33:15;35.03;;;16.03;;
13443;SDS011;6794;59.218;18.218;2024-02-23T01:35:41;37.70;;;18.07;;
13443;SDS011;6794;59.218;18.218;2024-02-23T01:38:07;33.77;;;14.80;;
13443;SDS011;6794;59.218;18.218;2024-02-23T01:40:33;33.20;;;15.27;;
13443;SDS011;6794;59.218;18.218;2024-02-23T01:43:06;47.85;;;24.25;;
13443;SDS011;6794;59.218;18.218;2024-02-23T01:45:32;40.93;;;20.47;;
13443;SDS011;6794;59.218;18.218;2024-02-23T01:47:58;42.17;;;18.37;;
13443;SDS011;6794;59.218;18.218;2024-02-23T01:50:25;41.47;;;16.37;;
13443;SDS011;6794;59.218;18.218;2024-02-23T01:52:51;42.80;;;17.97;;
13443;SDS011;6794;59.218;18.218;2024-02-23T01:55:18;37.50;;;17.20;;
13443;SDS011;6794;59.218;18.218;2024-02-23T01:57:44;38.47;;;15.33;;
13443;SDS011;6794;59.218;18.218;2024-02-23T02:00:11;46.00;;;20.40;;
13443;SDS011;6794;59.218;18.218;2024-02-23T02:02:40;41.57;;;18.20;;
13443;SDS011;6794;59.218;18.218;2024-02-23T02:05:07;38.63;;;16.03;;
13443;SDS011;6794;59.218;18.218;2024-02-23T02:07:33;42.57;;;17.60;;
13443;SDS011;6794;59.218;18.218;2024-02-23T02:09:59;44.13;;;19.00;;
13443;SDS011;6794;59.218;18.218;2024-02-23T02:12:26;38.37;;;15.87;;
13443;SDS011;6794;59.218;18.218;2024-02-23T02:14:52;40.07;;;17.27;;
13443;SDS011;6794;59.218;18.218;2024-02-23T02:17:19;44.78;;;25.35;;
13443;SDS011;6794;59.218;18.218;2024-02-23T02:19:48;33.43;;;17.43;;
13443;SDS011;6794;59.218;18.218;2024-02-23T02:22:14;32.73;;;14.90;;
13443;SDS011;6794;59.218;18.218;2024-02-23T02:24:40;37.47;;;16.77;;
13443;SDS011;6794;59.218;18.218;2024-02-23T02:27:11;44.63;;;21.73;;
13443;SDS011;6794;59.218;18.218;2024-02-23T02:29:37;53.10;;;25.48;;
13443;SDS011;6794;59.218;18.218;2024-02-23T02:32:03;41.50;;;17.83;;
13443;SDS011;6794;59.218;18.218;2024-02-23T02:34:29;36.47;;;16.43;;
13443;SDS011;6794;59.218;18.218;2024-02-23T02:36:55;43.50;;;19.63;;
13443;SDS011;6794;59.218;18.218;2024-02-23T02:39:21;41.43;;;17.70;;
13443;SDS011;6794;59.218;18.218;2024-02-23T02:41:48;48.10;;;25.50;;
13443;SDS011;6794;59.218;18.218;2024-02-23T02:44:14;49.92;;;21.45;;
13443;SDS011;6794;59.218;18.218;2024-02-23T02:46:41;45.53;;;20.13;;
13443;SDS011;6794;59.218;18.218;2024-02-23T02:49:07;52.73;;;19.10;;
13443;SDS011;6794;59.218;18.218;2024-02-23T02:51:33;47.57;;;17.33;;
13443;SDS011;6794;59.218;18.218;2024-02-23T02:54:00;36.50;;;16.20;;
13443;SDS011;6794;59.218;18.218;2024-02-23T02:56:26;45.97;;;17.77;;
13443;SDS011;6794;59.218;18.218;2024-02-23T02:58:52;45.93;;;21.30;;
13443;SDS011;6794;59.218;18.218;2024-02-23T03:01:18;50.43;;;21.23;;
13443;SDS011;6794;59.218;18.218;2024-02-23T03:03:44;37.50;;;17.27;;
13443;SDS011;6794;59.218;18.218;2024-02-23T03:06:10;40.30;;;17.00;;
13443;SDS011;6794;59.218;18.218;2024-02-23T03:08:36;36.33;;;15.47;;
13443;SDS011;6794;59.218;18.218;2024-02-23T03:11:02;41.83;;;21.03;;
13443;SDS011;6794;59.218;18.218;2024-02-23T03:13:28;45.10;;;20.53;;
13443;SDS011;6794;59.218;18.218;2024-02-23T03:15:56;33.50;;;15.30;;
13443;SDS011;6794;59.218;18.218;2024-02-23T03:18:22;33.80;;;14.70;;
13443;SDS011;6794;59.218;18.218;2024-02-23T03:20:48;32.87;;;18.87;;
13443;SDS011;6794;59.218;18.218;2024-02-23T03:23:14;39.35;;;17.73;;
13443;SDS011;6794;59.218;18.218;2024-02-23T03:25:40;34.57;;;14.73;;
13443;SDS011;6794;59.218;18.218;2024-02-23T03:28:06;33.20;;;17.27;;
13443;SDS011;6794;59.218;18.218;2024-02-23T03:30:32;39.03;;;17.90;;
13443;SDS011;6794;59.218;18.218;2024-02-23T03:32:58;37.87;;;18.13;;
13443;SDS011;6794;59.218;18.218;2024-02-23T03:35:24;29.97;;;14.60;;
13443;SDS011;6794;59.218;18.218;2024-02-23T03:37:50;34.07;;;14.27;;
13443;SDS011;6794;59.218;18.218;2024-02-23T03:40:16;34.07;;;15.10;;
13443;SDS011;6794;59.218;18.218;2024-02-23T03:42:45;23.80;;;10.07;;
13443;SDS011;6794;59.218;18.218;2024-02-23T03:45:11;41.90;;;15.80;;
13443;SDS011;6794;59.218;18.218;2024-02-23T03:47:38;52.27;;;19.57;;
13443;SDS011;6794;59.218;18.218;2024-02-23T03:50:05;57.57;;;22.03;;
13443;SDS011;6794;59.218;18.218;2024-02-23T03:52:32;41.93;;;16.57;;
13443;SDS011;6794;59.218;18.218;2024-02-23T03:54:58;55.67;;;21.67;;
13443;SDS011;6794;59.218;18.218;2024-02-23T03:57:24;49.93;;;17.83;;
13443;SDS011;6794;59.218;18.218;2024-02-23T03:59:54;55.00;;;19.77;;
13443;SDS011;6794;59.218;18.218;2024-02-23T04:02:20;70.90;;;28.67;;
13443;SDS011;6794;59.218;18.218;2024-02-23T04:04:47;52.47;;;17.03;;
13443;SDS011;6794;59.218;18.218;2024-02-23T04:07:13;61.17;;;18.53;;
13443;SDS011;6794;59.218;18.218;2024-02-23T04:09:39;49.80;;;18.80;;
13443;SDS011;6794;59.218;18.218;2024-02-23T04:12:06;43.40;;;17.23;;
13443;SDS011;6794;59.218;18.218;2024-02-23T04:14:32;54.97;;;17.97;;
13443;SDS011;6794;59.218;18.218;2024-02-23T04:17:01;53.40;;;18.73;;
13443;SDS011;6794;59.218;18.218;2024-02-23T04:19:27;64.85;;;25.15;;
13443;SDS011;6794;59.218;18.218;2024-02-23T04:21:53;56.10;;;18.33;;
13443;SDS011;6794;59.218;18.218;2024-02-23T04:24:20;57.13;;;19.97;;
13443;SDS011;6794;59.218;18.218;2024-02-23T04:26:46;49.63;;;18.67;;
13443;SDS011;6794;59.218;18.218;2024-02-23T04:29:12;62.37;;;23.20;;
13443;SDS011;6794;59.218;18.218;2024-02-23T04:31:38;42.90;;;18.93;;
13443;SDS011;6794;59.218;18.218;2024-02-23T04:34:04;42.20;;;14.57;;
13443;SDS011;6794;59.218;18.218;2024-02-23T04:36:30;24.23;;;11.17;;
13443;SDS011;6794;59.218;18.218;2024-02-23T04:38:56;36.58;;;16.92;;
13443;SDS011;6794;59.218;18.218;2024-02-23T04:41:22;22.00;;;10.77;;
13443;SDS011;6794;59.218;18.218;2024-02-23T04:43:48;18.27;;;8.63;;
13443;SDS011;6794;59.218;18.218;2024-02-23T04:46:14;19.90;;;8.57;;
13443;SDS011;6794;59.218;18.218;2024-02-23T04:48:40;29.25;;;14.73;;
13443;SDS011;6794;59.218;18.218;2024-02-23T04:51:07;25.43;;;11.53;;
13443;SDS011;6794;59.218;18.218;2024-02-23T04:53:38;22.77;;;10.60;;
13443;SDS011;6794;59.218;18.218;2024-02-23T04:56:05;19.97;;;13.87;;
13443;SDS011;6794;59.218;18.218;2024-02-23T04:58:31;23.30;;;10.03;;
13443;SDS011;6794;59.218;18.218;2024-02-23T05:00:57;28.53;;;13.17;;
13443;SDS011;6794;59.218;18.218;2024-02-23T05:03:23;31.02;;;15.60;;
13443;SDS011;6794;59.218;18.218;2024-02-23T05:05:50;28.37;;;11.67;;
13443;SDS011;6794;59.218;18.218;2024-02-23T05:08:19;24.47;;;9.83;;
13443;SDS011;6794;59.218;18.218;2024-02-23T05:10:46;26.43;;;11.30;;
13443;SDS011;6794;59.218;18.218;2024-02-23T05:13:12;26.07;;;9.83;;
13443;SDS011;6794;59.218;18.218;2024-02-23T05:15:38;23.23;;;9.20;;
13443;SDS011;6794;59.218;18.218;2024-02-23T05:18:05;30.80;;;13.07;;
13443;SDS011;6794;59.218;18.218;2024-02-23T05:20:31;30.30;;;11.15;;
13443;SDS011;6794;59.218;18.218;2024-02-23T05:22:57;25.30;;;9.23;;
13443;SDS011;6794;59.218;18.218;2024-02-23T05:25:23;22.53;;;10.10;;
13443;SDS011;6794;59.218;18.218;2024-02-23T05:27:50;26.97;;;10.57;;
13443;SDS011;6794;59.218;18.218;2024-02-23T05:30:16;32.00;;;10.20;;
13443;SDS011;6794;59.218;18.218;2024-02-23T05:32:42;44.83;;;17.27;;
13443;SDS011;6794;59.218;18.218;2024-02-23T05:35:09;41.60;;;13.23;;
13443;SDS011;6794;59.218;18.218;2024-02-23T05:37:35;38.47;;;11.87;;
13443;SDS011;6794;59.218;18.218;2024-02-23T05:40:02;43.47;;;18.63;;
13443;SDS011;6794;59.218;18.218;2024-02-23T05:42:35;50.33;;;23.07;;
13443;SDS011;6794;59.218;18.218;2024-02-23T05:45:01;52.37;;;14.50;;
13443;SDS011;6794;59.218;18.218;2024-02-23T05:47:29;47.83;;;16.30;;
13443;SDS011;6794;59.218;18.218;2024-02-23T05:49:55;24.17;;;8.93;;
13443;SDS011;6794;59.218;18.218;2024-02-23T05:52:21;31.73;;;11.37;;
13443;SDS011;6794;59.218;18.218;2024-02-23T05:54:47;29.10;;;11.87;;
13443;SDS011;6794;59.218;18.218;2024-02-23T05:57:14;41.87;;;12.07;;
13443;SDS011;6794;59.218;18.218;2024-02-23T05:59:40;39.07;;;16.93;;
13443;SDS011;6794;59.218;18.218;2024-02-23T06:02:06;49.33;;;19.60;;
13443;SDS011;6794;59.218;18.218;2024-02-23T06:04:32;57.97;;;15.87;;
13443;SDS011;6794;59.218;18.218;2024-02-23T06:06:58;36.47;;;12.43;;
13443;SDS011;6794;59.218;18.218;2024-02-23T06:09:24;47.13;;;19.83;;
13443;SDS011;6794;59.218;18.218;2024-02-23T06:11:50;57.50;;;19.17;;
13443;SDS011;6794;59.218;18.218;2024-02-23T06:14:16;48.23;;;15.63;;
13443;SDS011;6794;59.218;18.218;2024-02-23T06:16:42;45.80;;;15.37;;
13443;SDS011;6794;59.218;18.218;2024-02-23T06:19:09;39.63;;;12.60;;
13443;SDS011;6794;59.218;18.218;2024-02-23T06:21:35;47.50;;;15.67;;
13443;SDS011;6794;59.218;18.218;2024-02-23T06:24:01;50.83;;;20.13;;
13443;SDS011;6794;59.218;18.218;2024-02-23T06:26:27;58.67;;;32.13;;
13443;SDS011;6794;59.218;18.218;2024-02-23T06:28:53;50.43;;;16.70;;
13443;SDS011;6794;59.218;18.218;2024-02-23T06:31:19;55.47;;;19.33;;
13443;SDS011;6794;59.218;18.218;2024-02-23T06:33:45;65.00;;;21.83;;
13443;SDS011;6794;59.218;18.218;2024-02-23T06:36:14;64.50;;;22.03;;
13443;SDS011;6794;59.218;18.218;2024-02-23T06:38:40;55.50;;;21.70;;
13443;SDS011;6794;59.218;18.218;2024-02-23T06:41:06;63.40;;;31.20;;
13443;SDS011;6794;59.218;18.218;2024-02-23T06:43:35;59.83;;;19.98;;
13443;SDS011;6794;59.218;18.218;2024-02-23T06:46:08;57.27;;;21.40;;
13443;SDS011;6794;59.218;18.218;2024-02-23T06:48:34;60.13;;;22.20;;
13443;SDS011;6794;59.218;18.218;2024-02-23T06:51:00;54.80;;;20.10;;
13443;SDS011;6794;59.218;18.218;2024-02-23T06:53:27;53.97;;;21.17;;
13443;SDS011;6794;59.218;18.218;2024-02-23T06:55:53;67.13;;;30.47;;
13443;SDS011;6794;59.218;18.218;2024-02-23T06:58:19;56.53;;;22.93;;
13443;SDS011;6794;59.218;18.218;2024-02-23T07:00:45;51.73;;;19.40;;
13443;SDS011;6794;59.218;18.218;2024-02-23T07:03:11;51.97;;;25.10;;
13443;SDS011;6794;59.218;18.218;2024-02-23T07:05:37;53.13;;;25.67;;
13443;SDS011;6794;59.218;18.218;2024-02-23T07:08:03;48.90;;;27.20;;
13443;SDS011;6794;59.218;18.218;2024-02-23T07:10:30;42.43;;;21.60;;
13443;SDS011;6794;59.218;18.218;2024-02-23T07:12:56;44.33;;;20.30;;
13443;SDS011;6794;59.218;18.218;2024-02-23T07:15:23;40.83;;;23.30;;
13443;SDS011;6794;59.218;18.218;2024-02-23T07:17:49;33.50;;;17.27;;
13443;SDS011;6794;59.218;18.218;2024-02-23T07:20:15;34.30;;;18.35;;
13443;SDS011;6794;59.218;18.218;2024-02-23T07:22:45;33.03;;;17.43;;
13443;SDS011;6794;59.218;18.218;2024-02-23T07:25:11;34.83;;;17.53;;
13443;SDS011;6794;59.218;18.218;2024-02-23T07:27:38;34.60;;;21.63;;
13443;SDS011;6794;59.218;18.218;2024-02-23T07:30:04;29.33;;;15.30;;
13443;SDS011;6794;59.218;18.218;2024-02-23T07:32:30;30.00;;;15.77;;
13443;SDS011;6794;59.218;18.218;2024-02-23T07:34:56;21.87;;;11.00;;
13443;SDS011;6794;59.218;18.218;2024-02-23T07:37:22;26.53;;;15.83;;
13443;SDS011;6794;59.218;18.218;2024-02-23T07:39:48;28.67;;;13.20;;
13443;SDS011;6794;59.218;18.218;2024-02-23T07:42:14;25.67;;;15.50;;
13443;SDS011;6794;59.218;18.218;2024-02-23T07:44:43;20.27;;;12.10;;
13443;SDS011;6794;59.218;18.218;2024-02-23T07:47:09;23.00;;;12.13;;
13443;SDS011;6794;59.218;18.218;2024-02-23T07:49:35;31.08;;;18.10;;
13443;SDS011;6794;59.218;18.218;2024-02-23T07:52:02;26.03;;;15.70;;
13443;SDS011;6794;59.218;18.218;2024-02-23T07:54:28;28.07;;;18.23;;
13443;SDS011;6794;59.218;18.218;2024-02-23T07:56:54;25.57;;;16.20;;
13443;SDS011;6794;59.218;18.218;2024-02-23T07:59:22;27.93;;;17.47;;
13443;SDS011;6794;59.218;18.218;2024-02-23T08:01:48;30.45;;;19.55;;
13443;SDS011;6794;59.218;18.218;2024-02-23T08:04:14;26.50;;;14.10;;
13443;SDS011;6794;59.218;18.218;2024-02-23T08:06:41;23.63;;;11.40;;
13443;SDS011;6794;59.218;18.218;2024-02-23T08:09:07;24.27;;;12.97;;
13443;SDS011;6794;59.218;18.218;2024-02-23T08:11:34;26.77;;;13.27;;
13443;SDS011;6794;59.218;18.218;2024-02-23T08:14:00;23.57;;;13.37;;
13443;SDS011;6794;59.218;18.218;2024-02-23T08:16:28;25.90;;;17.70;;
13443;SDS011;6794;59.218;18.218;2024-02-23T08:18:54;28.57;;;14.50;;
13443;SDS011;6794;59.218;18.218;2024-02-23T08:21:20;24.50;;;14.00;;
13443;SDS011;6794;59.218;18.218;2024-02-23T08:23:46;23.33;;;11.63;;
13443;SDS011;6794;59.218;18.218;2024-02-23T08:26:12;22.37;;;12.83;;
13443;SDS011;6794;59.218;18.218;2024-02-23T08:28:38;22.67;;;13.17;;
13443;SDS011;6794;59.218;18.218;2024-02-23T08:31:04;26.13;;;14.90;;
13443;SDS011;6794;59.218;18.218;2024-02-23T08:33:30;21.20;;;12.23;;
13443;SDS011;6794;59.218;18.218;2024-02-23T08:35:56;25.50;;;15.10;;
13443;SDS011;6794;59.218;18.218;2024-02-23T08:38:22;19.73;;;11.13;;
13443;SDS011;6794;59.218;18.218;2024-02-23T08:40:48;20.97;;;13.73;;
13443;SDS011;6794;59.218;18.218;2024-02-23T08:43:15;19.23;;;12.40;;
13443;SDS011;6794;59.218;18.218;2024-02-23T08:45:41;17.73;;;11.27;;
13443;SDS011;6794;59.218;18.218;2024-02-23T08:48:07;22.40;;;13.18;;
13443;SDS011;6794;59.218;18.218;2024-02-23T08:50:33;12.60;;;8.67;;
13443;SDS011;6794;59.218;18.218;2024-02-23T08:52:59;16.20;;;8.57;;
13443;SDS011;6794;59.218;18.218;2024-02-23T08:55:25;15.77;;;9.47;;
13443;SDS011;6794;59.218;18.218;2024-02-23T08:57:51;16.87;;;10.60;;
13443;SDS011;6794;59.218;18.218;2024-02-23T09:00:17;18.60;;;13.13;;
13443;SDS011;6794;59.218;18.218;2024-02-23T09:02:44;19.33;;;11.50;;
13443;SDS011;6794;59.218;18.218;2024-02-23T09:05:10;20.17;;;11.40;;
13443;SDS011;6794;59.218;18.218;2024-02-23T09:07:36;20.13;;;10.27;;
13443;SDS011;6794;59.218;18.218;2024-02-23T09:10:02;22.20;;;13.60;;
13443;SDS011;6794;59.218;18.218;2024-02-23T09:12:30;16.10;;;9.63;;
13443;SDS011;6794;59.218;18.218;2024-02-23T09:14:56;22.20;;;10.10;;
13443;SDS011;6794;59.218;18.218;2024-02-23T09:17:22;17.97;;;9.37;;
13443;SDS011;6794;59.218;18.218;2024-02-23T09:19:48;19.23;;;9.67;;
13443;SDS011;6794;59.218;18.218;2024-02-23T09:22:14;16.83;;;9.83;;
13443;SDS011;6794;59.218;18.218;2024-02-23T09:24:40;17.40;;;10.33;;
13443;SDS011;6794;59.218;18.218;2024-02-23T09:27:06;16.67;;;10.03;;
13443;SDS011;6794;59.218;18.218;2024-02-23T09:29:33;15.37;;;8.43;;
13443;SDS011;6794;59.218;18.218;2024-02-23T09:31:59;18.10;;;9.60;;
13443;SDS011;6794;59.218;18.218;2024-02-23T09:34:25;16.33;;;9.63;;
13443;SDS011;6794;59.218;18.218;2024-02-23T09:36:51;18.30;;;13.30;;
13443;SDS011;6794;59.218;18.218;2024-02-23T09:39:17;13.47;;;9.23;;
13443;SDS011;6794;59.218;18.218;2024-02-23T09:41:45;15.50;;;8.20;;
13443;SDS011;6794;59.218;18.218;2024-02-23T09:44:11;10.20;;;7.03;;
13443;SDS011;6794;59.218;18.218;2024-02-23T09:46:38;13.93;;;8.43;;
13443;SDS011;6794;59.218;18.218;2024-02-23T09:49:04;14.77;;;8.40;;
13443;SDS011;6794;59.218;18.218;2024-02-23T09:51:31;12.77;;;8.03;;
13443;SDS011;6794;59.218;18.218;2024-02-23T09:53:57;15.03;;;8.80;;
13443;SDS011;6794;59.218;18.218;2024-02-23T09:56:25;16.33;;;8.70;;
13443;SDS011;6794;59.218;18.218;2024-02-23T09:58:54;19.87;;;8.03;;
13443;SDS011;6794;59.218;18.218;2024-02-23T10:01:27;12.23;;;7.83;;
13443;SDS011;6794;59.218;18.218;2024-02-23T10:03:57;12.43;;;8.07;;
13443;SDS011;6794;59.218;18.218;2024-02-23T10:06:26;10.70;;;7.23;;
13443;SDS011;6794;59.218;18.218;2024-02-23T10:08:52;16.63;;;6.87;;
13443;SDS011;6794;59.218;18.218;2024-02-23T10:11:22;14.80;;;5.83;;
13443;SDS011;6794;59.218;18.218;2024-02-23T10:13:49;12.17;;;7.37;;
13443;SDS011;6794;59.218;18.218;2024-02-23T10:16:16;11.33;;;7.00;;
13443;SDS011;6794;59.218;18.218;2024-02-23T10:18:43;12.68;;;7.65;;
13443;SDS011;6794;59.218;18.218;2024-02-23T10:21:09;12.57;;;6.67;;
13443;SDS011;6794;59.218;18.218;2024-02-23T10:23:35;10.23;;;6.60;;
13443;SDS011;6794;59.218;18.218;2024-02-23T10:26:01;12.87;;;6.57;;
13443;SDS011;6794;59.218;18.218;2024-02-23T10:28:27;8.97;;;5.40;;
13443;SDS011;6794;59.218;18.218;2024-02-23T10:30:53;11.77;;;5.20;;
13443;SDS011;6794;59.218;18.218;2024-02-23T10:33:21;9.97;;;5.90;;
13443;SDS011;6794;59.218;18.218;2024-02-23T10:35:50;8.93;;;4.23;;
13443;SDS011;6794;59.218;18.218;2024-02-23T10:38:17;6.87;;;3.87;;
13443;SDS011;6794;59.218;18.218;2024-02-23T10:40:58;10.45;;;6.72;;
13443;SDS011;6794;59.218;18.218;2024-02-23T10:43:40;7.33;;;4.90;;
13443;SDS011;6794;59.218;18.218;2024-02-23T10:46:08;8.97;;;4.87;;
13443;SDS011;6794;59.218;18.218;2024-02-23T10:48:38;7.20;;;4.30;;
13443;SDS011;6794;59.218;18.218;2024-02-23T10:51:04;10.30;;;3.77;;
13443;SDS011;6794;59.218;18.218;2024-02-23T10:53:31;5.30;;;3.63;;
13443;SDS011;6794;59.218;18.218;2024-02-23T10:55:57;7.93;;;3.40;;
13443;SDS011;6794;59.218;18.218;2024-02-23T10:58:23;6.43;;;3.07;;
13443;SDS011;6794;59.218;18.218;2024-02-23T11:00:49;6.45;;;3.30;;
13443;SDS011;6794;59.218;18.218;2024-02-23T11:03:15;5.67;;;2.80;;
13443;SDS011;6794;59.218;18.218;2024-02-23T11:05:42;4.87;;;2.47;;
13443;SDS011;6794;59.218;18.218;2024-02-23T11:08:08;3.70;;;2.13;;
13443;SDS011;6794;59.218;18.218;2024-02-23T11:10:48;5.00;;;2.20;;
13443;SDS011;6794;59.218;18.218;2024-02-23T11:13:16;4.33;;;2.03;;
13443;SDS011;6794;59.218;18.218;2024-02-23T11:15:42;5.13;;;2.40;;
13443;SDS011;6794;59.218;18.218;2024-02-23T11:18:50;4.00;;;1.90;;
13443;SDS011;6794;59.218;18.218;2024-02-23T11:21:01;3.93;;;2.20;;
13443;SDS011;6794;59.218;18.218;2024-02-23T11:23:40;5.05;;;2.15;;
13443;SDS011;6794;59.218;18.218;2024-02-23T11:26:09;4.07;;;1.93;;
13443;SDS011;6794;59.218;18.218;2024-02-23T11:29:09;4.20;;;1.80;;
13443;SDS011;6794;59.218;18.218;2024-02-23T11:31:29;5.87;;;1.73;;
13443;SDS011;6794;59.218;18.218;2024-02-23T11:33:56;5.90;;;2.10;;
13443;SDS011;6794;59.218;18.218;2024-02-23T11:36:24;5.80;;;1.43;;
13443;SDS011;6794;59.218;18.218;2024-02-23T11:38:53;4.40;;;2.00;;
13443;SDS011;6794;59.218;18.218;2024-02-23T11:41:21;2.57;;;1.40;;
13443;SDS011;6794;59.218;18.218;2024-02-23T11:43:48;4.63;;;1.80;;
13443;SDS011;6794;59.218;18.218;2024-02-23T11:46:15;4.27;;;1.50;;
13443;SDS011;6794;59.218;18.218;2024-02-23T11:48:41;3.13;;;1.40;;
13443;SDS011;6794;59.218;18.218;2024-02-23T11:51:08;2.37;;;1.20;;
13443;SDS011;6794;59.218;18.218;2024-02-23T11:53:36;5.63;;;1.90;;
13443;SDS011;6794;59.218;18.218;2024-02-23T11:56:04;4.13;;;1.53;;
13443;SDS011;6794;59.218;18.218;2024-02-23T11:58:30;2.63;;;1.37;;
13443;SDS011;6794;59.218;18.218;2024-02-23T12:00:56;5.90;;;1.60;;
13443;SDS011;6794;59.218;18.218;2024-02-23T12:03:22;3.77;;;1.20;;
13443;SDS011;6794;59.218;18.218;2024-02-23T12:05:50;4.00;;;1.20;;
13443;SDS011;6794;59.218;18.218;2024-02-23T12:08:16;3.97;;;1.57;;
13443;SDS011;6794;59.218;18.218;2024-02-23T12:10:43;4.07;;;1.30;;
13443;SDS011;6794;59.218;18.218;2024-02-23T12:13:09;3.77;;;1.50;;
13443;SDS011;6794;59.218;18.218;2024-02-23T12:15:35;3.37;;;1.30;;
13443;SDS011;6794;59.218;18.218;2024-02-23T12:18:03;2.10;;;1.00;;
13443;SDS011;6794;59.218;18.218;2024-02-23T12:20:32;4.20;;;1.20;;
13443;SDS011;6794;59.218;18.218;2024-02-23T12:23:00;4.63;;;1.00;;
13443;SDS011;6794;59.218;18.218;2024-02-23T12:25:26;3.43;;;1.00;;
13443;SDS011;6794;59.218;18.218;2024-02-23T12:27:56;4.03;;;1.47;;
13443;SDS011;6794;59.218;18.218;2024-02-23T12:30:22;4.10;;;1.27;;
13443;SDS011;6794;59.218;18.218;2024-02-23T12:32:48;5.97;;;1.10;;
13443;SDS011;6794;59.218;18.218;2024-02-23T12:35:14;5.40;;;1.07;;
13443;SDS011;6794;59.218;18.218;2024-02-23T12:37:42;5.20;;;1.07;;
13443;SDS011;6794;59.218;18.218;2024-02-23T12:40:09;2.80;;;1.10;;
13443;SDS011;6794;59.218;18.218;2024-02-23T12:42:35;4.90;;;1.40;;
13443;SDS011;6794;59.218;18.218;2024-02-23T12:45:01;2.80;;;1.20;;
13443;SDS011;6794;59.218;18.218;2024-02-23T12:47:27;4.23;;;1.13;;
13443;SDS011;6794;59.218;18.218;2024-02-23T12:49:53;4.97;;;1.40;;
13443;SDS011;6794;59.218;18.218;2024-02-23T12:52:19;3.40;;;1.70;;
13443;SDS011;6794;59.218;18.218;2024-02-23T12:54:45;3.70;;;1.40;;
13443;SDS011;6794;59.218;18.218;2024-02-23T12:57:11;2.93;;;1.23;;
13443;SDS011;6794;59.218;18.218;2024-02-23T12:59:37;7.37;;;1.20;;
13443;SDS011;6794;59.218;18.218;2024-02-23T13:02:04;3.47;;;1.30;;
13443;SDS011;6794;59.218;18.218;2024-02-23T13:04:32;4.27;;;1.40;;
13443;SDS011;6794;59.218;18.218;2024-02-23T13:06:58;3.87;;;1.37;;
13443;SDS011;6794;59.218;18.218;2024-02-23T13:09:24;4.07;;;1.50;;
13443;SDS011;6794;59.218;18.218;2024-02-23T13:11:50;4.73;;;1.00;;
13443;SDS011;6794;59.218;18.218;2024-02-23T13:14:16;3.47;;;0.90;;
13443;SDS011;6794;59.218;18.218;2024-02-23T13:16:42;2.53;;;0.90;;
13443;SDS011;6794;59.218;18.218;2024-02-23T13:19:08;6.97;;;1.23;;
13443;SDS011;6794;59.218;18.218;2024-02-23T13:21:34;4.63;;;1.20;;
13443;SDS011;6794;59.218;18.218;2024-02-23T13:24:00;4.47;;;1.10;;
13443;SDS011;6794;59.218;18.218;2024-02-23T13:26:26;4.60;;;1.00;;
13443;SDS011;6794;59.218;18.218;2024-02-23T13:28:52;4.63;;;1.10;;
13443;SDS011;6794;59.218;18.218;2024-02-23T13:31:18;5.38;;;1.38;;
13443;SDS011;6794;59.218;18.218;2024-02-23T13:33:44;3.03;;;1.17;;
13443;SDS011;6794;59.218;18.218;2024-02-23T13:36:10;4.37;;;1.27;;
13443;SDS011;6794;59.218;18.218;2024-02-23T13:38:37;3.57;;;1.03;;
13443;SDS011;6794;59.218;18.218;2024-02-23T13:41:04;2.23;;;1.00;;
13443;SDS011;6794;59.218;18.218;2024-02-23T13:43:31;2.43;;;1.07;;
13443;SDS011;6794;59.218;18.218;2024-02-23T13:45:58;4.03;;;1.57;;
13443;SDS011;6794;59.218;18.218;2024-02-23T13:48:24;4.70;;;1.30;;
13443;SDS011;6794;59.218;18.218;2024-02-23T13:50:50;4.28;;;1.30;;
13443;SDS011;6794;59.218;18.218;2024-02-23T13:53:16;7.20;;;1.50;;
13443;SDS011;6794;59.218;18.218;2024-02-23T13:55:42;4.90;;;1.17;;
13443;SDS011;6794;59.218;18.218;2024-02-23T13:58:09;3.20;;;1.00;;
13443;SDS011;6794;59.218;18.218;2024-02-23T14:00:35;3.40;;;1.27;;
13443;SDS011;6794;59.218;18.218;2024-02-23T14:03:01;4.73;;;0.97;;
13443;SDS011;6794;59.218;18.218;2024-02-23T14:05:27;2.43;;;1.03;;
13443;SDS011;6794;59.218;18.218;2024-02-23T14:07:53;4.67;;;1.37;;
13443;SDS011;6794;59.218;18.218;2024-02-23T14:10:20;4.38;;;1.45;;
13443;SDS011;6794;59.218;18.218;2024-02-23T14:12:46;2.50;;;1.23;;
13443;SDS011;6794;59.218;18.218;2024-02-23T14:15:14;3.83;;;1.13;;
13443;SDS011;6794;59.218;18.218;2024-02-23T14:17:40;3.13;;;1.13;;
13443;SDS011;6794;59.218;18.218;2024-02-23T14:20:06;4.80;;;1.30;;
13443;SDS011;6794;59.218;18.218;2024-02-23T14:22:32;2.97;;;1.00;;
13443;SDS011;6794;59.218;18.218;2024-02-23T14:24:58;5.07;;;1.27;;
13443;SDS011;6794;59.218;18.218;2024-02-23T14:27:24;2.70;;;0.80;;